createdAt,value
2019-03-25T00:01:21.369Z,6.80
2019-03-25T00:02:57.762Z,6.80
2019-03-25T00:04:33.954Z,6.80
2019-03-25T00:06:10.242Z,6.90
2019-03-25T00:07:46.528Z,6.80
2019-03-25T00:09:23.951Z,6.80
2019-03-25T00:11:00.314Z,6.80
2019-03-25T00:12:38.139Z,6.70
2019-03-25T00:14:14.423Z,6.70
2019-03-25T00:15:50.854Z,6.60
2019-03-25T00:17:27.239Z,6.50
2019-03-25T00:19:03.783Z,6.50
2019-03-25T00:20:40.253Z,6.40
2019-03-25T00:22:16.631Z,6.30
2019-03-25T00:23:54.642Z,6.10
2019-03-25T00:25:31.035Z,6.10
2019-03-25T00:27:07.307Z,6.20
2019-03-25T00:28:43.742Z,6.20
2019-03-25T00:30:20.238Z,6.20
2019-03-25T00:31:56.567Z,6.20
2019-03-25T00:33:32.979Z,6.20
2019-03-25T00:35:09.362Z,6.30
2019-03-25T00:36:45.707Z,6.20
2019-03-25T00:38:22.128Z,6.20
2019-03-25T00:39:59.601Z,6.20
2019-03-25T00:41:35.925Z,6.20
2019-03-25T00:43:12.158Z,6.30
2019-03-25T00:44:48.467Z,6.30
2019-03-25T00:46:24.862Z,6.30
2019-03-25T00:48:01.525Z,6.30
2019-03-25T00:49:37.872Z,6.30
2019-03-25T00:51:14.094Z,6.40
2019-03-25T00:52:50.121Z,6.40
2019-03-25T00:54:26.337Z,6.30
2019-03-25T00:56:02.710Z,6.40
2019-03-25T00:57:39.085Z,6.40
2019-03-25T00:59:15.187Z,6.30
2019-03-25T01:00:51.534Z,6.40
2019-03-25T01:02:27.925Z,6.40
2019-03-25T01:04:04.554Z,6.40
2019-03-25T01:05:40.871Z,6.40
2019-03-25T01:07:17.310Z,6.40
2019-03-25T01:08:53.438Z,6.40
2019-03-25T01:10:30.390Z,6.40
2019-03-25T01:12:06.769Z,6.40
2019-03-25T01:13:44.673Z,6.40
2019-03-25T01:15:20.870Z,6.30
2019-03-25T01:16:57.093Z,6.30
2019-03-25T01:18:33.209Z,6.30
2019-03-25T01:20:10.134Z,6.30
2019-03-25T01:21:46.234Z,6.40
2019-03-25T01:23:22.463Z,6.30
2019-03-25T01:25:02.281Z,6.40
2019-03-25T01:26:36.484Z,6.40
2019-03-25T01:28:12.706Z,6.30
2019-03-25T01:29:48.863Z,6.30
2019-03-25T01:31:25.024Z,6.40
2019-03-25T01:33:01.244Z,6.40
2019-03-25T01:34:37.379Z,6.40
2019-03-25T01:36:13.443Z,6.40
2019-03-25T01:37:49.595Z,6.40
2019-03-25T01:39:25.828Z,6.40
2019-03-25T01:41:02.052Z,6.40
2019-03-25T01:42:38.309Z,6.30
2019-03-25T01:44:14.411Z,6.30
2019-03-25T01:45:50.733Z,6.30
2019-03-25T01:47:27.033Z,6.30
2019-03-25T01:49:04.542Z,6.30
2019-03-25T01:50:40.694Z,6.30
2019-03-25T01:52:16.686Z,6.30
2019-03-25T01:53:54.114Z,6.30
2019-03-25T01:55:30.199Z,6.20
2019-03-25T01:57:06.398Z,6.20
2019-03-25T01:58:42.520Z,6.20
2019-03-25T02:00:18.837Z,6.20
2019-03-25T02:01:55.129Z,6.20
2019-03-25T02:03:31.495Z,6.20
2019-03-25T02:05:08.191Z,6.20
2019-03-25T02:06:45.689Z,6.20
2019-03-25T02:08:22.173Z,6.20
2019-03-25T02:09:58.239Z,6.30
2019-03-25T02:11:34.435Z,6.20
2019-03-25T02:13:10.667Z,6.30
2019-03-25T02:14:46.907Z,6.30
2019-03-25T02:16:23.163Z,6.30
2019-03-25T02:17:59.461Z,6.30
2019-03-25T02:19:35.780Z,6.30
2019-03-25T02:21:11.907Z,6.30
2019-03-25T02:22:48.137Z,6.40
2019-03-25T02:24:24.367Z,6.40
2019-03-25T02:26:00.569Z,6.30
2019-03-25T02:27:36.726Z,6.30
2019-03-25T02:29:13.021Z,6.40
2019-03-25T02:30:49.641Z,6.40
2019-03-25T02:32:25.713Z,6.40
2019-03-25T02:34:03.129Z,6.40
2019-03-25T02:35:39.354Z,6.40
2019-03-25T02:37:15.677Z,6.40
2019-03-25T02:38:51.830Z,6.40
2019-03-25T02:40:28.001Z,6.40
2019-03-25T02:42:04.245Z,6.40
2019-03-25T02:43:40.437Z,6.40
2019-03-25T02:45:16.564Z,6.40
2019-03-25T02:46:52.787Z,6.40
2019-03-25T02:48:28.858Z,6.40
2019-03-25T02:50:06.760Z,6.40
2019-03-25T02:51:42.885Z,6.30
2019-03-25T02:53:19.115Z,6.30
2019-03-25T02:54:55.358Z,6.30
2019-03-25T02:56:31.513Z,6.30
2019-03-25T02:58:07.741Z,6.30
2019-03-25T02:59:43.971Z,6.20
2019-03-25T03:01:20.209Z,6.20
2019-03-25T03:02:56.483Z,6.10
2019-03-25T03:04:32.783Z,6.10
2019-03-25T03:06:09.126Z,6.20
2019-03-25T03:07:45.268Z,6.20
2019-03-25T03:09:21.354Z,6.10
2019-03-25T03:10:57.573Z,6.00
2019-03-25T03:12:33.836Z,5.90
2019-03-25T03:14:10.102Z,5.80
2019-03-25T03:15:46.291Z,5.90
2019-03-25T03:17:22.652Z,5.80
2019-03-25T03:18:58.649Z,5.60
2019-03-25T03:20:34.957Z,5.60
2019-03-25T03:22:11.194Z,5.60
2019-03-25T03:23:47.373Z,5.60
2019-03-25T03:25:23.681Z,5.60
2019-03-25T03:26:59.808Z,5.60
2019-03-25T03:28:36.001Z,5.50
2019-03-25T03:30:12.327Z,5.50
2019-03-25T03:31:48.622Z,5.50
2019-03-25T03:33:24.608Z,5.50
2019-03-25T03:35:01.120Z,5.50
2019-03-25T03:36:37.293Z,5.40
2019-03-25T03:38:13.447Z,5.50
2019-03-25T03:39:49.666Z,5.40
2019-03-25T03:41:26.010Z,5.40
2019-03-25T03:43:02.050Z,5.30
2019-03-25T03:44:38.217Z,5.30
2019-03-25T03:46:14.525Z,5.30
2019-03-25T03:47:50.694Z,5.20
2019-03-25T03:49:26.988Z,5.20
2019-03-25T03:51:03.310Z,5.10
2019-03-25T03:52:40.210Z,5.10
2019-03-25T03:54:16.711Z,5.00
2019-03-25T03:55:53.178Z,4.90
2019-03-25T03:57:30.659Z,4.80
2019-03-25T03:59:06.792Z,4.80
2019-03-25T04:00:43.092Z,4.70
2019-03-25T04:02:19.190Z,4.70
2019-03-25T04:03:55.321Z,4.60
2019-03-25T04:05:31.627Z,4.50
2019-03-25T04:07:07.867Z,4.30
2019-03-25T04:08:44.032Z,4.30
2019-03-25T04:10:20.259Z,4.20
2019-03-25T04:11:56.424Z,4.10
2019-03-25T04:13:32.631Z,4.00
2019-03-25T04:15:09.102Z,4.00
2019-03-25T04:16:45.257Z,3.90
2019-03-25T04:18:21.423Z,3.80
2019-03-25T04:19:57.608Z,3.70
2019-03-25T04:21:33.726Z,3.70
2019-03-25T04:23:10.057Z,3.60
2019-03-25T04:24:46.203Z,3.60
2019-03-25T04:26:29.057Z,3.60
2019-03-25T04:28:00.339Z,3.60
2019-03-25T04:29:36.509Z,3.50
2019-03-25T04:31:12.718Z,3.40
2019-03-25T04:32:48.889Z,3.40
2019-03-25T04:34:25.010Z,3.40
2019-03-25T04:36:01.366Z,3.30
2019-03-25T04:37:37.640Z,3.40
2019-03-25T04:39:13.820Z,3.40
2019-03-25T04:40:49.922Z,3.40
2019-03-25T04:42:26.153Z,3.40
2019-03-25T04:44:02.094Z,3.40
2019-03-25T04:45:38.261Z,3.40
2019-03-25T04:47:14.135Z,3.50
2019-03-25T04:48:50.265Z,3.70
2019-03-25T04:50:26.519Z,3.90
2019-03-25T04:52:02.713Z,4.10
2019-03-25T04:53:38.831Z,4.20
2019-03-25T04:55:15.067Z,4.30
2019-03-25T04:56:51.230Z,4.40
2019-03-25T04:58:27.358Z,4.30
2019-03-25T05:00:03.663Z,4.30
2019-03-25T05:01:39.883Z,4.30
2019-03-25T05:03:17.291Z,4.30
2019-03-25T05:04:53.391Z,4.60
2019-03-25T05:06:29.488Z,4.90
2019-03-25T05:08:05.799Z,5.20
2019-03-25T05:09:42.034Z,5.50
2019-03-25T05:11:18.268Z,5.80
2019-03-25T05:12:55.553Z,5.80
2019-03-25T05:14:31.815Z,5.70
2019-03-25T05:16:07.980Z,5.50
2019-03-25T05:17:44.134Z,5.40
2019-03-25T05:19:20.239Z,6.20
2019-03-25T05:20:56.410Z,6.20
2019-03-25T05:22:32.577Z,6.70
2019-03-25T05:24:08.737Z,7.30
2019-03-25T05:25:44.828Z,7.90
2019-03-25T05:27:20.912Z,8.50
2019-03-25T05:28:56.711Z,9.20
2019-03-25T05:30:32.947Z,9.70
2019-03-25T05:32:09.048Z,10.30
2019-03-25T05:33:45.220Z,10.70
2019-03-25T05:35:21.101Z,11.10
2019-03-25T05:36:57.192Z,10.80
2019-03-25T05:38:33.295Z,10.40
2019-03-25T05:40:10.129Z,10.20
2019-03-25T05:41:46.120Z,9.80
2019-03-25T05:43:22.255Z,9.50
2019-03-25T05:44:58.348Z,9.30
2019-03-25T05:46:34.849Z,9.10
2019-03-25T05:48:11.022Z,9.00
2019-03-25T05:49:47.154Z,8.80
2019-03-25T05:51:23.480Z,8.90
2019-03-25T05:52:59.348Z,8.60
2019-03-25T05:54:35.569Z,8.50
2019-03-25T05:56:11.663Z,8.30
2019-03-25T05:57:47.741Z,8.20
2019-03-25T05:59:24.796Z,8.00
2019-03-25T06:01:01.129Z,7.90
2019-03-25T06:02:37.285Z,7.90
2019-03-25T06:04:13.451Z,7.80
2019-03-25T06:05:49.568Z,7.70
2019-03-25T06:07:25.599Z,7.50
2019-03-25T06:09:01.767Z,7.50
2019-03-25T06:10:38.071Z,7.50
2019-03-25T06:12:14.795Z,7.50
2019-03-25T06:13:50.946Z,7.50
2019-03-25T06:15:27.282Z,7.40
2019-03-25T06:17:03.615Z,7.40
2019-03-25T06:18:39.779Z,7.40
2019-03-25T06:20:16.181Z,7.40
2019-03-25T06:21:52.375Z,7.40
2019-03-25T06:23:28.593Z,7.40
2019-03-25T06:25:07.048Z,7.50
2019-03-25T06:26:43.199Z,7.60
2019-03-25T06:28:19.366Z,7.70
2019-03-25T06:29:55.661Z,7.90
2019-03-25T06:31:31.890Z,8.00
2019-03-25T06:33:12.563Z,8.10
2019-03-25T06:34:46.117Z,8.20
2019-03-25T06:36:22.355Z,8.40
2019-03-25T06:37:58.640Z,8.60
2019-03-25T06:39:34.812Z,8.80
2019-03-25T06:41:11.267Z,8.90
2019-03-25T06:42:47.583Z,8.90
2019-03-25T06:44:23.883Z,9.00
2019-03-25T06:46:00.042Z,9.00
2019-03-25T06:47:36.026Z,9.10
2019-03-25T06:49:12.191Z,9.10
2019-03-25T06:50:48.367Z,9.10
2019-03-25T06:52:24.632Z,9.10
2019-03-25T06:54:00.863Z,9.10
2019-03-25T06:55:36.994Z,9.10
2019-03-25T06:57:13.236Z,9.10
2019-03-25T06:58:49.508Z,9.10
2019-03-25T07:00:25.904Z,9.10
2019-03-25T07:02:05.168Z,9.00
2019-03-25T07:03:41.331Z,8.90
2019-03-25T07:05:17.629Z,8.80
2019-03-25T07:06:53.797Z,8.70
2019-03-25T07:08:32.016Z,8.60
2019-03-25T07:10:10.115Z,8.60
2019-03-25T07:11:46.452Z,8.60
2019-03-25T07:13:22.584Z,8.60
2019-03-25T07:14:58.890Z,8.50
2019-03-25T07:16:35.102Z,8.50
2019-03-25T07:18:11.396Z,8.50
2019-03-25T07:19:47.706Z,8.40
2019-03-25T07:21:23.864Z,8.40
2019-03-25T07:23:00.132Z,8.40
2019-03-25T07:24:36.285Z,8.50
2019-03-25T07:26:12.495Z,8.50
2019-03-25T07:27:48.709Z,8.50
2019-03-25T07:29:24.776Z,8.50
2019-03-25T07:31:01.132Z,8.50
2019-03-25T07:32:37.366Z,8.50
2019-03-25T07:34:13.594Z,8.60
2019-03-25T07:35:49.824Z,8.70
2019-03-25T07:37:25.999Z,8.70
2019-03-25T07:39:02.060Z,8.80
2019-03-25T07:40:38.383Z,8.90
2019-03-25T07:42:14.515Z,8.90
2019-03-25T07:43:50.747Z,8.90
2019-03-25T07:45:26.955Z,9.00
2019-03-25T07:47:04.336Z,9.10
2019-03-25T07:48:40.494Z,9.20
2019-03-25T07:50:16.696Z,9.30
2019-03-25T07:51:52.863Z,9.50
2019-03-25T07:53:29.023Z,9.60
2019-03-25T07:55:07.541Z,9.80
2019-03-25T07:56:43.735Z,9.90
2019-03-25T07:58:20.042Z,10.00
2019-03-25T07:59:56.314Z,10.00
2019-03-25T08:01:32.519Z,9.90
2019-03-25T08:03:08.742Z,9.90
2019-03-25T08:04:45.133Z,9.90
2019-03-25T08:06:21.408Z,10.00
2019-03-25T08:07:57.808Z,10.00
2019-03-25T08:09:33.982Z,10.00
2019-03-25T08:11:10.210Z,10.00
2019-03-25T08:12:46.570Z,10.10
2019-03-25T08:14:24.167Z,10.10
2019-03-25T08:16:00.717Z,10.10
2019-03-25T08:17:38.277Z,10.10
2019-03-25T08:19:14.407Z,10.10
2019-03-25T08:20:50.654Z,10.10
2019-03-25T08:22:26.911Z,10.10
2019-03-25T08:24:03.013Z,10.10
2019-03-25T08:25:39.325Z,10.10
2019-03-25T08:27:15.629Z,10.10
2019-03-25T08:28:52.035Z,10.10
2019-03-25T08:30:28.440Z,10.20
2019-03-25T08:32:04.687Z,10.20
2019-03-25T08:33:40.867Z,10.20
2019-03-25T08:35:17.183Z,10.30
2019-03-25T08:36:53.602Z,10.30
2019-03-25T08:38:29.952Z,10.20
2019-03-25T08:40:09.839Z,10.20
2019-03-25T08:41:46.115Z,10.20
2019-03-25T08:43:22.368Z,10.20
2019-03-25T08:44:58.695Z,10.30
2019-03-25T08:46:37.475Z,10.30
2019-03-25T08:48:13.783Z,10.30
2019-03-25T08:49:50.012Z,10.30
2019-03-25T08:51:26.154Z,10.30
2019-03-25T08:53:02.483Z,10.50
2019-03-25T08:54:38.715Z,10.60
2019-03-25T08:56:15.020Z,10.80
2019-03-25T08:57:51.328Z,10.90
2019-03-25T08:59:27.569Z,11.10
2019-03-25T09:01:03.933Z,11.30
2019-03-25T09:02:40.106Z,11.60
2019-03-25T09:04:16.537Z,11.90
2019-03-25T09:05:52.705Z,12.20
2019-03-25T09:07:28.805Z,12.40
2019-03-25T09:09:07.594Z,12.60
2019-03-25T09:10:43.841Z,12.70
2019-03-25T09:12:20.118Z,12.90
2019-03-25T09:13:55.950Z,12.90
2019-03-25T09:15:32.145Z,13.20
2019-03-25T09:17:08.460Z,13.40
2019-03-25T09:18:44.698Z,13.40
2019-03-25T09:20:20.999Z,13.50
2019-03-25T09:21:57.265Z,13.60
2019-03-25T09:23:33.504Z,13.70
2019-03-25T09:25:10.220Z,14.00
2019-03-25T09:26:47.020Z,14.00
2019-03-25T09:28:24.662Z,14.00
2019-03-25T09:30:03.351Z,14.00
2019-03-25T09:31:38.838Z,14.00
2019-03-25T09:33:14.924Z,14.00
2019-03-25T09:34:51.312Z,14.30
2019-03-25T09:36:27.635Z,14.30
2019-03-25T09:38:03.866Z,14.30
2019-03-25T09:39:40.052Z,14.30
2019-03-25T09:41:16.277Z,14.40
2019-03-25T09:42:52.444Z,14.40
2019-03-25T09:44:29.880Z,14.40
2019-03-25T09:46:06.182Z,14.30
2019-03-25T09:47:42.512Z,14.20
2019-03-25T09:49:18.739Z,14.20
2019-03-25T09:50:55.053Z,14.30
2019-03-25T09:52:38.369Z,14.40
2019-03-25T09:54:09.332Z,14.50
2019-03-25T09:55:45.648Z,14.50
2019-03-25T09:57:21.895Z,14.40
2019-03-25T09:58:57.807Z,14.50
2019-03-25T10:00:34.299Z,14.90
2019-03-25T10:02:10.609Z,15.10
2019-03-25T10:03:46.743Z,15.40
2019-03-25T10:05:23.016Z,15.20
2019-03-25T10:06:59.540Z,15.00
2019-03-25T10:08:35.863Z,15.00
2019-03-25T10:10:12.370Z,14.90
2019-03-25T10:11:48.669Z,14.60
2019-03-25T10:13:24.838Z,14.50
2019-03-25T10:15:01.070Z,14.30
2019-03-25T10:16:37.392Z,14.10
2019-03-25T10:18:13.699Z,13.80
2019-03-25T10:19:49.803Z,13.50
2019-03-25T10:21:25.903Z,13.50
2019-03-25T10:23:02.117Z,13.30
2019-03-25T10:24:38.356Z,13.50
2019-03-25T10:26:14.357Z,13.80
2019-03-25T10:27:50.610Z,14.20
2019-03-25T10:29:26.752Z,14.60
2019-03-25T10:31:02.981Z,14.80
2019-03-25T10:32:39.183Z,15.10
2019-03-25T10:34:15.405Z,15.10
2019-03-25T10:35:51.713Z,14.90
2019-03-25T10:37:27.957Z,14.70
2019-03-25T10:39:06.887Z,14.60
2019-03-25T10:40:43.104Z,14.30
2019-03-25T10:42:19.336Z,14.00
2019-03-25T10:43:55.204Z,13.60
2019-03-25T10:45:31.445Z,13.30
2019-03-25T10:47:07.758Z,13.00
2019-03-25T10:48:43.920Z,12.70
2019-03-25T10:50:20.295Z,12.40
2019-03-25T10:51:56.538Z,11.70
2019-03-25T10:53:32.708Z,11.20
2019-03-25T10:55:09.405Z,10.80
2019-03-25T10:56:49.242Z,10.50
2019-03-25T10:58:23.630Z,10.00
2019-03-25T11:00:00.854Z,9.60
2019-03-25T11:01:37.078Z,9.30
2019-03-25T11:03:13.457Z,9.00
2019-03-25T11:04:49.614Z,8.80
2019-03-25T11:06:25.708Z,8.70
2019-03-25T11:08:01.940Z,8.50
2019-03-25T11:09:38.168Z,8.30
2019-03-25T11:11:14.473Z,8.30
2019-03-25T11:12:50.777Z,8.20
2019-03-25T11:14:26.954Z,8.30
2019-03-25T11:16:03.350Z,8.40
2019-03-25T11:17:39.597Z,8.60
2019-03-25T11:19:15.792Z,8.70
2019-03-25T11:20:52.028Z,8.90
2019-03-25T11:22:30.103Z,9.00
2019-03-25T11:24:06.220Z,9.10
2019-03-25T11:25:42.522Z,9.30
2019-03-25T11:27:18.831Z,9.40
2019-03-25T11:28:54.621Z,9.60
2019-03-25T11:30:54.947Z,9.70
2019-03-25T11:32:31.078Z,10.10
2019-03-25T11:34:07.487Z,10.70
2019-03-25T11:35:43.638Z,11.10
2019-03-25T11:37:19.884Z,11.50
2019-03-25T11:38:56.186Z,11.70
2019-03-25T11:40:32.432Z,11.60
2019-03-25T11:42:10.276Z,11.70
2019-03-25T11:43:46.737Z,11.60
2019-03-25T11:45:24.244Z,11.60
2019-03-25T11:47:00.113Z,11.70
2019-03-25T11:48:36.429Z,11.80
2019-03-25T11:50:13.509Z,11.90
2019-03-25T11:51:49.513Z,11.90
2019-03-25T11:53:25.705Z,11.90
2019-03-25T11:55:01.714Z,12.10
2019-03-25T11:56:37.948Z,12.10
2019-03-25T11:58:14.176Z,12.10
2019-03-25T11:59:50.387Z,12.00
2019-03-25T12:01:26.761Z,11.90
2019-03-25T12:03:03.168Z,11.90
2019-03-25T12:04:39.417Z,11.90
2019-03-25T12:06:15.743Z,11.80
2019-03-25T12:07:51.906Z,11.80
2019-03-25T12:09:28.079Z,11.90
2019-03-25T12:11:04.389Z,12.10
2019-03-25T12:12:40.560Z,12.20
2019-03-25T12:14:16.763Z,12.40
2019-03-25T12:15:53.077Z,12.40
2019-03-25T12:17:29.285Z,12.30
2019-03-25T12:19:05.895Z,12.20
2019-03-25T12:20:42.159Z,12.00
2019-03-25T12:22:18.405Z,12.00
2019-03-25T12:23:54.551Z,11.80
2019-03-25T12:25:30.797Z,11.60
2019-03-25T12:27:07.102Z,11.30
2019-03-25T12:28:43.342Z,11.30
2019-03-25T12:30:19.751Z,11.30
2019-03-25T12:31:56.168Z,11.30
2019-03-25T12:33:32.410Z,11.40
2019-03-25T12:35:09.209Z,11.50
2019-03-25T12:36:45.420Z,11.50
2019-03-25T12:38:21.752Z,11.50
2019-03-25T12:39:58.092Z,11.50
2019-03-25T12:41:34.328Z,11.60
2019-03-25T12:43:10.632Z,11.60
2019-03-25T12:44:46.942Z,11.60
2019-03-25T12:46:23.183Z,11.50
2019-03-25T12:47:59.483Z,11.60
2019-03-25T12:49:35.763Z,11.90
2019-03-25T12:51:11.931Z,12.20
2019-03-25T12:52:49.436Z,12.40
2019-03-25T12:54:25.611Z,12.50
2019-03-25T12:56:01.955Z,12.60
2019-03-25T12:57:38.187Z,12.90
2019-03-25T12:59:14.356Z,13.00
2019-03-25T13:00:50.690Z,13.00
2019-03-25T13:02:26.921Z,13.10
2019-03-25T13:04:03.079Z,13.00
2019-03-25T13:05:39.890Z,13.00
2019-03-25T13:07:16.193Z,13.10
2019-03-25T13:08:52.305Z,13.10
2019-03-25T13:10:28.464Z,13.00
2019-03-25T13:12:04.847Z,13.00
2019-03-25T13:13:41.185Z,13.20
2019-03-25T13:15:17.419Z,13.40
2019-03-25T13:16:53.359Z,13.50
2019-03-25T13:18:29.532Z,13.70
2019-03-25T13:20:07.548Z,13.80
2019-03-25T13:21:43.544Z,13.60
2019-03-25T13:23:19.432Z,13.40
2019-03-25T13:24:55.675Z,13.30
2019-03-25T13:26:31.945Z,13.10
2019-03-25T13:28:08.187Z,12.80
2019-03-25T13:29:52.455Z,12.60
2019-03-25T13:31:22.285Z,12.20
2019-03-25T13:32:58.597Z,12.10
2019-03-25T13:34:34.841Z,11.70
2019-03-25T13:36:11.089Z,11.60
2019-03-25T13:37:47.233Z,11.90
2019-03-25T13:39:23.402Z,11.80
2019-03-25T13:40:59.644Z,12.20
2019-03-25T13:42:35.997Z,12.30
2019-03-25T13:44:12.157Z,12.10
2019-03-25T13:45:48.166Z,11.90
2019-03-25T13:47:24.421Z,11.40
2019-03-25T13:49:00.628Z,11.20
2019-03-25T13:50:36.863Z,11.40
2019-03-25T13:52:13.045Z,11.40
2019-03-25T13:53:49.279Z,11.50
2019-03-25T13:55:26.738Z,11.20
2019-03-25T13:57:03.247Z,11.10
2019-03-25T13:58:39.404Z,11.10
2019-03-25T14:00:16.313Z,11.10
2019-03-25T14:01:52.113Z,11.00
2019-03-25T14:03:28.419Z,11.00
2019-03-25T14:05:05.862Z,10.80
2019-03-25T14:06:41.929Z,10.80
2019-03-25T14:08:18.002Z,10.70
2019-03-25T14:09:54.246Z,10.70
2019-03-25T14:11:30.436Z,10.60
2019-03-25T14:13:06.746Z,10.50
2019-03-25T14:14:44.178Z,10.40
2019-03-25T14:16:20.418Z,10.40
2019-03-25T14:17:56.514Z,10.30
2019-03-25T14:19:32.750Z,10.30
2019-03-25T14:21:08.988Z,10.20
2019-03-25T14:22:45.279Z,10.10
2019-03-25T14:24:21.445Z,10.00
2019-03-25T14:25:57.600Z,9.90
2019-03-25T14:27:33.760Z,9.80
2019-03-25T14:29:10.101Z,9.70
2019-03-25T14:30:46.398Z,9.60
2019-03-25T14:32:22.571Z,9.30
2019-03-25T14:33:58.833Z,9.30
2019-03-25T14:35:35.133Z,9.20
2019-03-25T14:37:11.394Z,9.30
2019-03-25T14:38:47.561Z,9.30
2019-03-25T14:40:25.557Z,9.30
2019-03-25T14:42:01.966Z,9.30
2019-03-25T14:43:38.332Z,9.40
2019-03-25T14:45:25.875Z,9.50
2019-03-25T14:46:52.755Z,9.60
2019-03-25T14:48:28.910Z,9.60
2019-03-25T14:50:07.231Z,9.80
2019-03-25T14:51:43.421Z,9.90
2019-03-25T14:53:19.509Z,10.00
2019-03-25T14:54:55.682Z,10.00
2019-03-25T14:56:31.842Z,9.90
2019-03-25T14:58:08.133Z,9.90
2019-03-25T14:59:44.361Z,9.60
2019-03-25T15:01:20.677Z,9.30
2019-03-25T15:02:56.994Z,9.40
2019-03-25T15:04:33.293Z,9.50
2019-03-25T15:06:10.854Z,9.60
2019-03-25T15:07:47.164Z,9.30
2019-03-25T15:09:23.324Z,9.10
2019-03-25T15:10:59.554Z,9.00
2019-03-25T15:12:35.859Z,9.00
2019-03-25T15:14:12.099Z,8.80
2019-03-25T15:15:48.369Z,9.10
2019-03-25T15:17:24.610Z,9.00
2019-03-25T15:19:00.875Z,8.90
2019-03-25T15:20:36.993Z,9.10
2019-03-25T15:22:13.231Z,9.10
2019-03-25T15:23:49.529Z,9.10
2019-03-25T15:25:25.780Z,9.10
2019-03-25T15:27:01.934Z,9.10
2019-03-25T15:28:39.546Z,9.10
2019-03-25T15:30:16.581Z,9.20
2019-03-25T15:31:52.434Z,9.10
2019-03-25T15:33:28.663Z,8.90
2019-03-25T15:35:09.645Z,9.00
2019-03-25T15:36:45.711Z,8.90
2019-03-25T15:38:22.003Z,8.80
2019-03-25T15:39:58.321Z,8.90
2019-03-25T15:41:34.536Z,8.80
2019-03-25T15:43:10.735Z,8.80
2019-03-25T15:44:46.731Z,8.70
2019-03-25T15:46:22.860Z,8.40
2019-03-25T15:47:58.989Z,8.50
2019-03-25T15:49:35.220Z,8.50
2019-03-25T15:51:11.487Z,8.40
2019-03-25T15:52:47.680Z,8.30
2019-03-25T15:54:24.011Z,8.10
2019-03-25T15:56:02.647Z,8.00
2019-03-25T15:57:39.849Z,8.00
2019-03-25T15:59:16.430Z,8.00
2019-03-25T16:00:52.659Z,8.00
2019-03-25T16:02:28.862Z,7.80
2019-03-25T16:04:05.100Z,7.70
2019-03-25T16:05:41.232Z,7.50
2019-03-25T16:07:17.431Z,7.50
2019-03-25T16:08:53.657Z,7.50
2019-03-25T16:10:29.688Z,7.40
2019-03-25T16:12:05.977Z,7.40
2019-03-25T16:13:42.306Z,7.40
2019-03-25T16:15:43.411Z,7.30
2019-03-25T16:17:20.829Z,7.30
2019-03-25T16:18:57.136Z,7.20
2019-03-25T16:20:33.306Z,7.20
2019-03-25T16:22:09.795Z,7.10
2019-03-25T16:23:46.114Z,7.00
2019-03-25T16:25:29.014Z,7.00
2019-03-25T16:27:05.218Z,7.00
2019-03-25T16:28:41.455Z,6.90
2019-03-25T16:30:18.005Z,6.90
2019-03-25T16:31:54.320Z,6.90
2019-03-25T16:33:30.494Z,6.80
2019-03-25T16:35:07.897Z,6.80
2019-03-25T16:36:44.122Z,6.70
2019-03-25T16:38:20.377Z,6.70
2019-03-25T16:39:56.588Z,6.70
2019-03-25T16:41:32.831Z,6.70
2019-03-25T16:43:09.063Z,6.60
2019-03-25T16:44:45.245Z,6.50
2019-03-25T16:46:21.574Z,6.50
2019-03-25T16:47:57.735Z,6.40
2019-03-25T16:49:39.242Z,6.40
2019-03-25T16:51:16.630Z,6.30
2019-03-25T16:52:52.848Z,6.20
2019-03-25T16:54:29.211Z,6.20
2019-03-25T16:56:05.521Z,6.10
2019-03-25T16:57:41.727Z,6.10
2019-03-25T16:59:20.245Z,6.00
2019-03-25T17:00:56.549Z,5.90
2019-03-25T17:02:32.810Z,5.80
2019-03-25T17:04:09.141Z,5.80
2019-03-25T17:05:45.419Z,5.70
2019-03-25T17:07:21.584Z,5.60
2019-03-25T17:08:57.771Z,5.60
2019-03-25T17:10:33.932Z,5.60
2019-03-25T17:12:10.231Z,5.50
2019-03-25T17:13:46.454Z,5.50
2019-03-25T17:15:22.764Z,5.50
2019-03-25T17:16:58.939Z,5.40
2019-03-25T17:18:35.113Z,5.40
2019-03-25T17:20:11.508Z,5.30
2019-03-25T17:21:57.730Z,5.30
2019-03-25T17:23:25.588Z,5.30
2019-03-25T17:25:03.014Z,5.40
2019-03-25T17:26:42.532Z,5.40
2019-03-25T17:28:17.244Z,5.30
2019-03-25T17:29:53.636Z,5.30
2019-03-25T17:31:29.628Z,5.30
2019-03-25T17:33:05.920Z,5.20
2019-03-25T17:34:42.080Z,5.20
2019-03-25T17:36:18.173Z,5.10
2019-03-25T17:37:54.407Z,5.10
2019-03-25T17:39:30.514Z,5.00
2019-03-25T17:41:06.434Z,4.90
2019-03-25T17:42:42.578Z,4.90
2019-03-25T17:44:18.745Z,4.90
2019-03-25T17:45:54.984Z,4.80
2019-03-25T17:47:31.081Z,4.70
2019-03-25T17:49:07.386Z,4.50
2019-03-25T17:50:43.695Z,4.50
2019-03-25T17:52:19.804Z,4.40
2019-03-25T17:53:56.318Z,4.30
2019-03-25T17:55:32.662Z,4.30
2019-03-25T17:57:08.962Z,4.20
2019-03-25T17:58:45.131Z,4.20
2019-03-25T18:00:49.800Z,4.20
2019-03-25T18:02:26.132Z,4.20
2019-03-25T18:04:02.474Z,4.00
2019-03-25T18:05:38.646Z,4.00
2019-03-25T18:07:14.809Z,4.00
2019-03-25T18:08:51.166Z,4.00
2019-03-25T18:10:27.471Z,4.00
2019-03-25T18:12:03.649Z,3.90
2019-03-25T18:13:39.846Z,3.90
2019-03-25T18:15:16.171Z,3.90
2019-03-25T18:16:52.420Z,3.80
2019-03-25T18:18:28.631Z,3.80
2019-03-25T18:20:18.230Z,3.80
2019-03-25T18:21:45.557Z,3.90
2019-03-25T18:23:21.811Z,3.90
2019-03-25T18:24:57.979Z,3.90
2019-03-25T18:26:34.128Z,3.90
2019-03-25T18:28:10.381Z,3.80
2019-03-25T18:29:46.668Z,3.90
2019-03-25T18:31:23.027Z,3.90
2019-03-25T18:32:59.331Z,3.90
2019-03-25T18:34:35.771Z,4.00
2019-03-25T18:36:12.044Z,4.00
2019-03-25T18:37:48.156Z,4.00
2019-03-25T18:39:24.324Z,4.10
2019-03-25T18:41:00.389Z,4.00
2019-03-25T18:42:36.754Z,4.10
2019-03-25T18:44:12.992Z,4.10
2019-03-25T18:45:49.303Z,4.10
2019-03-25T18:47:25.686Z,4.20
2019-03-25T18:49:02.198Z,4.20
2019-03-25T18:50:38.431Z,4.20
2019-03-25T18:52:14.744Z,4.10
2019-03-25T18:53:51.046Z,4.20
2019-03-25T18:55:27.292Z,4.20
2019-03-25T18:57:03.501Z,4.20
2019-03-25T18:58:39.799Z,4.20
2019-03-25T19:00:36.311Z,4.20
2019-03-25T19:02:12.587Z,4.20
2019-03-25T19:03:48.824Z,4.20
2019-03-25T19:05:25.065Z,4.20
2019-03-25T19:07:01.564Z,4.30
2019-03-25T19:08:38.866Z,4.30
2019-03-25T19:10:19.566Z,4.40
2019-03-25T19:11:55.811Z,4.40
2019-03-25T19:13:32.040Z,4.40
2019-03-25T19:15:08.643Z,4.40
2019-03-25T19:16:44.880Z,4.40
2019-03-25T19:18:21.054Z,4.40
2019-03-25T19:19:57.146Z,4.50
2019-03-25T19:21:33.215Z,4.50
2019-03-25T19:23:09.336Z,4.50
2019-03-25T19:24:45.507Z,4.50
2019-03-25T19:26:21.745Z,4.50
2019-03-25T19:27:57.981Z,4.50
2019-03-25T19:29:34.144Z,4.50
2019-03-25T19:31:10.401Z,4.50
2019-03-25T19:32:46.646Z,4.50
2019-03-25T19:34:22.819Z,4.50
2019-03-25T19:35:58.947Z,4.50
2019-03-25T19:37:35.110Z,4.50
2019-03-25T19:39:11.333Z,4.60
2019-03-25T19:40:47.451Z,4.60
2019-03-25T19:42:23.642Z,4.60
2019-03-25T19:44:01.041Z,4.50
2019-03-25T19:45:37.243Z,4.60
2019-03-25T19:47:13.556Z,4.50
2019-03-25T19:48:49.655Z,4.50
2019-03-25T19:50:25.930Z,4.40
2019-03-25T19:52:02.422Z,4.30
2019-03-25T19:53:38.748Z,4.30
2019-03-25T19:55:15.045Z,4.20
2019-03-25T19:56:51.120Z,4.10
2019-03-25T19:58:27.361Z,4.10
2019-03-25T20:00:04.875Z,4.00
2019-03-25T20:01:41.083Z,4.00
2019-03-25T20:03:17.430Z,3.90
2019-03-25T20:04:53.648Z,3.80
2019-03-25T20:06:29.917Z,3.70
2019-03-25T20:08:06.270Z,3.60
2019-03-25T20:09:42.675Z,3.50
2019-03-25T20:11:18.948Z,3.50
2019-03-25T20:12:55.053Z,3.50
2019-03-25T20:14:31.182Z,3.50
2019-03-25T20:16:07.546Z,3.40
2019-03-25T20:17:43.754Z,3.40
2019-03-25T20:19:19.903Z,3.40
2019-03-25T20:20:56.261Z,3.40
2019-03-25T20:22:32.460Z,3.40
2019-03-25T20:24:08.635Z,3.30
2019-03-25T20:25:44.951Z,3.30
2019-03-25T20:27:21.207Z,3.20
2019-03-25T20:28:57.590Z,3.20
2019-03-25T20:30:33.926Z,3.20
2019-03-25T20:32:10.382Z,3.20
2019-03-25T20:33:46.611Z,3.20
2019-03-25T20:35:22.889Z,3.20
2019-03-25T20:36:59.133Z,3.20
2019-03-25T20:38:35.512Z,3.30
2019-03-25T20:40:12.010Z,3.30
2019-03-25T20:41:48.215Z,3.30
2019-03-25T20:43:24.586Z,3.30
2019-03-25T20:45:00.781Z,3.30
2019-03-25T20:46:37.185Z,3.30
2019-03-25T20:48:13.413Z,3.30
2019-03-25T20:49:49.787Z,3.30
2019-03-25T20:51:26.075Z,3.30
2019-03-25T20:53:02.709Z,3.30
2019-03-25T20:54:38.929Z,3.30
2019-03-25T20:56:15.230Z,3.30
2019-03-25T20:57:51.545Z,3.30
2019-03-25T20:59:27.685Z,3.30
2019-03-25T21:01:04.026Z,3.30
2019-03-25T21:02:45.246Z,3.20
2019-03-25T21:04:18.208Z,3.20
2019-03-25T21:05:54.418Z,3.20
2019-03-25T21:07:30.523Z,3.20
2019-03-25T21:09:08.065Z,3.20
2019-03-25T21:10:44.358Z,3.20
2019-03-25T21:12:20.684Z,3.20